createdAt,value
2019-05-19T00:02:08.660Z,99.90
2019-05-19T00:04:33.870Z,99.90
2019-05-19T00:06:59.287Z,99.90
2019-05-19T00:09:24.399Z,99.90
2019-05-19T00:11:49.489Z,99.90
2019-05-19T00:14:14.720Z,99.90
2019-05-19T00:16:39.806Z,99.90
2019-05-19T00:19:05.053Z,99.90
2019-05-19T00:21:30.189Z,99.90
2019-05-19T00:23:55.290Z,99.90
2019-05-19T00:26:20.428Z,99.90
2019-05-19T00:28:45.615Z,99.90
2019-05-19T00:31:10.727Z,99.90
2019-05-19T00:33:35.903Z,99.90
2019-05-19T00:36:01.039Z,99.90
2019-05-19T00:38:26.136Z,99.90
2019-05-19T00:40:51.270Z,99.90
2019-05-19T00:43:16.894Z,99.90
2019-05-19T00:45:43.521Z,99.90
2019-05-19T00:48:08.675Z,99.90
2019-05-19T00:50:33.742Z,99.90
2019-05-19T00:52:58.870Z,99.90
2019-05-19T00:55:23.974Z,99.90
2019-05-19T00:57:49.599Z,99.90
2019-05-19T01:00:15.110Z,99.90
2019-05-19T01:02:40.250Z,99.90
2019-05-19T01:05:05.714Z,99.90
2019-05-19T01:07:30.801Z,99.90
2019-05-19T01:09:55.922Z,99.90
2019-05-19T01:12:21.031Z,99.90
2019-05-19T01:14:46.238Z,99.90
2019-05-19T01:17:11.329Z,99.90
2019-05-19T01:19:36.572Z,99.90
2019-05-19T01:22:01.669Z,99.90
2019-05-19T01:24:26.778Z,99.90
2019-05-19T01:26:51.875Z,99.90
2019-05-19T01:29:16.968Z,99.90
2019-05-19T01:31:42.104Z,99.90
2019-05-19T01:34:07.197Z,99.90
2019-05-19T01:36:32.329Z,99.90
2019-05-19T01:38:57.417Z,99.90
2019-05-19T01:41:22.581Z,99.90
2019-05-19T01:43:47.669Z,99.90
2019-05-19T01:46:13.758Z,99.90
2019-05-19T01:48:38.857Z,99.90
2019-05-19T01:51:04.077Z,99.90
2019-05-19T01:53:29.177Z,99.90
2019-05-19T01:55:54.279Z,99.90
2019-05-19T01:58:19.423Z,99.90
2019-05-19T02:00:44.510Z,99.90
2019-05-19T02:03:09.658Z,99.90
2019-05-19T02:05:34.767Z,99.90
2019-05-19T02:07:59.902Z,99.90
2019-05-19T02:10:25.010Z,99.90
2019-05-19T02:12:50.234Z,99.90
2019-05-19T02:15:15.637Z,99.90
2019-05-19T02:17:40.751Z,99.90
2019-05-19T02:20:08.373Z,99.90
2019-05-19T02:22:34.982Z,99.90
2019-05-19T02:25:00.188Z,99.90
2019-05-19T02:27:25.278Z,99.90
2019-05-19T02:29:50.411Z,99.90
2019-05-19T02:32:15.504Z,99.90
2019-05-19T02:34:40.619Z,99.90
2019-05-19T02:37:06.694Z,99.90
2019-05-19T02:39:31.836Z,99.90
2019-05-19T02:41:59.069Z,99.90
2019-05-19T02:44:25.059Z,99.90
2019-05-19T02:46:51.638Z,99.90
2019-05-19T02:49:18.468Z,99.90
2019-05-19T02:51:45.582Z,99.90
2019-05-19T02:54:11.570Z,99.90
2019-05-19T02:56:36.987Z,99.90
2019-05-19T02:59:02.181Z,99.90
2019-05-19T03:01:27.313Z,99.90
2019-05-19T03:03:52.407Z,99.90
2019-05-19T03:06:17.770Z,99.90
2019-05-19T03:08:42.895Z,99.90
2019-05-19T03:11:08.019Z,99.90
2019-05-19T03:13:33.146Z,99.90
2019-05-19T03:15:58.244Z,99.90
2019-05-19T03:18:23.370Z,99.90
2019-05-19T03:20:48.645Z,99.90
2019-05-19T03:23:13.830Z,99.90
2019-05-19T03:25:38.967Z,99.90
2019-05-19T03:28:04.106Z,99.90
2019-05-19T03:30:54.751Z,99.90
2019-05-19T03:33:22.287Z,99.90
2019-05-19T03:35:47.392Z,99.90
2019-05-19T03:38:12.526Z,99.90
2019-05-19T03:40:37.635Z,99.90
2019-05-19T03:43:02.727Z,99.90
2019-05-19T03:45:27.849Z,99.90
2019-05-19T03:47:52.950Z,99.90
2019-05-19T03:50:18.276Z,99.90
2019-05-19T03:52:44.341Z,99.90
2019-05-19T03:55:09.499Z,99.90
2019-05-19T03:57:34.596Z,99.90
2019-05-19T03:59:59.706Z,99.90
2019-05-19T04:02:25.864Z,99.90
2019-05-19T04:04:50.964Z,99.90
2019-05-19T04:07:16.082Z,99.90
2019-05-19T04:09:41.194Z,99.90
2019-05-19T04:12:06.311Z,99.90
2019-05-19T04:14:31.413Z,99.90
2019-05-19T04:16:56.542Z,99.90
2019-05-19T04:19:21.634Z,99.90
2019-05-19T04:21:49.178Z,99.90
2019-05-19T04:24:13.714Z,99.90
2019-05-19T04:26:38.810Z,99.90
2019-05-19T04:29:04.053Z,99.90
2019-05-19T04:31:29.155Z,99.90
2019-05-19T04:33:54.262Z,99.90
2019-05-19T04:36:19.381Z,99.90
2019-05-19T04:38:44.483Z,99.90
2019-05-19T04:41:09.972Z,99.90
2019-05-19T04:43:35.183Z,99.90
2019-05-19T04:46:00.290Z,99.90
2019-05-19T04:48:25.394Z,99.90
2019-05-19T04:50:50.544Z,99.90
2019-05-19T04:53:15.674Z,99.90
2019-05-19T04:55:40.806Z,99.90
2019-05-19T04:58:05.926Z,99.90
2019-05-19T05:00:31.052Z,99.90
2019-05-19T05:02:56.187Z,99.90
2019-05-19T05:05:21.286Z,99.90
2019-05-19T05:07:46.688Z,99.90
2019-05-19T05:10:11.880Z,99.90
2019-05-19T05:12:36.983Z,99.90
2019-05-19T05:15:02.119Z,99.90
2019-05-19T05:17:27.211Z,99.90
2019-05-19T05:19:52.350Z,99.90
2019-05-19T05:22:22.033Z,99.90
2019-05-19T05:24:45.202Z,99.90
2019-05-19T05:27:10.329Z,99.90
2019-05-19T05:29:35.467Z,99.90
2019-05-19T05:32:00.552Z,99.90
2019-05-19T05:34:25.645Z,99.90
2019-05-19T05:36:51.058Z,99.90
2019-05-19T05:39:16.251Z,99.90
2019-05-19T05:41:41.376Z,99.90
2019-05-19T05:44:06.613Z,99.90
2019-05-19T05:46:31.707Z,99.90
2019-05-19T05:48:56.809Z,99.90
2019-05-19T05:51:21.951Z,99.90
2019-05-19T05:53:47.053Z,99.90
2019-05-19T05:56:12.198Z,99.90
2019-05-19T05:58:37.303Z,99.90
2019-05-19T06:01:02.402Z,99.90
2019-05-19T06:03:27.618Z,99.90
2019-05-19T06:05:52.982Z,99.90
2019-05-19T06:08:18.351Z,99.00
2019-05-19T06:10:43.479Z,99.60
2019-05-19T06:13:08.576Z,98.60
2019-05-19T06:15:33.806Z,98.00
2019-05-19T06:17:58.906Z,96.90
2019-05-19T06:20:24.010Z,96.10
2019-05-19T06:22:56.367Z,95.60
2019-05-19T06:25:16.020Z,95.10
2019-05-19T06:27:41.154Z,94.00
2019-05-19T06:30:08.655Z,94.50
2019-05-19T06:32:38.575Z,93.00
2019-05-19T06:35:03.743Z,93.10
2019-05-19T06:37:28.839Z,93.30
2019-05-19T06:39:53.979Z,93.70
2019-05-19T06:42:19.078Z,92.80
2019-05-19T06:44:44.204Z,92.80
2019-05-19T06:47:09.295Z,92.50
2019-05-19T06:49:34.390Z,92.60
2019-05-19T06:51:59.517Z,92.70
2019-05-19T06:54:24.878Z,92.20
2019-05-19T06:56:50.014Z,92.40
2019-05-19T06:59:15.093Z,92.90
2019-05-19T07:01:40.240Z,91.20
2019-05-19T07:04:05.326Z,91.50
2019-05-19T07:06:30.422Z,90.70
2019-05-19T07:08:55.563Z,90.60
2019-05-19T07:11:20.739Z,90.60
2019-05-19T07:13:45.877Z,88.00
2019-05-19T07:16:11.230Z,86.90
2019-05-19T07:18:36.371Z,87.80
2019-05-19T07:21:01.468Z,84.80
2019-05-19T07:23:28.650Z,81.80
2019-05-19T07:25:54.437Z,82.20
2019-05-19T07:28:19.592Z,80.50
2019-05-19T07:30:44.982Z,81.50
2019-05-19T07:33:10.064Z,82.70
2019-05-19T07:35:35.218Z,82.30
2019-05-19T07:38:00.342Z,79.00
2019-05-19T07:40:25.447Z,79.60
2019-05-19T07:42:50.667Z,79.60
2019-05-19T07:45:15.766Z,76.40
2019-05-19T07:47:40.887Z,77.80
2019-05-19T07:50:06.113Z,75.10
2019-05-19T07:52:31.193Z,78.10
2019-05-19T07:54:56.397Z,81.60
2019-05-19T07:57:21.491Z,77.40
2019-05-19T07:59:46.578Z,77.50
2019-05-19T08:02:11.690Z,75.30
2019-05-19T08:04:36.777Z,76.40
2019-05-19T08:07:01.898Z,75.30
2019-05-19T08:09:26.979Z,75.00
2019-05-19T08:11:52.122Z,76.00
2019-05-19T08:14:17.220Z,77.60
2019-05-19T08:16:42.321Z,72.90
2019-05-19T08:19:08.411Z,74.20
2019-05-19T08:21:33.502Z,73.80
2019-05-19T08:24:00.842Z,73.10
2019-05-19T08:26:25.422Z,74.30
2019-05-19T08:28:50.563Z,74.40
2019-05-19T08:31:15.658Z,73.30
2019-05-19T08:33:40.767Z,73.30
2019-05-19T08:36:05.909Z,72.40
2019-05-19T08:38:31.010Z,70.90
2019-05-19T08:40:56.234Z,70.10
2019-05-19T08:43:21.306Z,70.40
2019-05-19T08:45:46.454Z,69.40
2019-05-19T08:48:12.077Z,70.50
2019-05-19T08:50:37.166Z,67.30
2019-05-19T08:53:02.282Z,69.20
2019-05-19T08:55:27.370Z,67.80
2019-05-19T08:57:52.489Z,68.30
2019-05-19T09:00:18.190Z,68.90
2019-05-19T09:02:43.302Z,70.20
2019-05-19T09:05:08.481Z,68.90
2019-05-19T09:07:33.618Z,69.20
2019-05-19T09:09:58.705Z,71.00
2019-05-19T09:12:23.810Z,70.60
2019-05-19T09:14:48.947Z,72.90
2019-05-19T09:17:14.054Z,69.60
2019-05-19T09:19:39.170Z,72.00
2019-05-19T09:22:04.274Z,71.70
2019-05-19T09:24:31.134Z,71.30
2019-05-19T09:26:56.332Z,70.90
2019-05-19T09:29:21.910Z,73.30
2019-05-19T09:31:47.055Z,70.90
2019-05-19T09:34:12.142Z,70.80
2019-05-19T09:36:37.254Z,72.00
2019-05-19T09:39:02.539Z,70.30
2019-05-19T09:41:27.929Z,71.90
2019-05-19T09:43:54.797Z,73.40
2019-05-19T09:46:19.914Z,72.20
2019-05-19T09:48:45.305Z,70.00
2019-05-19T09:51:10.435Z,70.10
2019-05-19T09:53:35.538Z,74.20
2019-05-19T09:56:00.634Z,71.20
2019-05-19T09:58:25.758Z,71.70
2019-05-19T10:00:50.857Z,71.10
2019-05-19T10:03:15.981Z,69.80
2019-05-19T10:05:41.071Z,69.90
2019-05-19T10:08:06.198Z,67.80
2019-05-19T10:11:01.657Z,69.40
2019-05-19T10:13:26.858Z,71.60
2019-05-19T10:15:53.009Z,68.00
2019-05-19T10:18:18.130Z,67.50
2019-05-19T10:20:43.486Z,69.30
2019-05-19T10:23:08.602Z,67.60
2019-05-19T10:25:33.782Z,66.20
2019-05-19T10:27:58.871Z,68.10
2019-05-19T10:30:24.001Z,68.40
2019-05-19T10:32:49.105Z,66.50
2019-05-19T10:35:14.341Z,66.90
2019-05-19T10:37:39.430Z,66.60
2019-05-19T10:40:05.461Z,68.80
2019-05-19T10:42:30.565Z,66.00
2019-05-19T10:44:55.769Z,65.30
2019-05-19T10:47:21.206Z,69.40
2019-05-19T10:49:49.751Z,66.90
2019-05-19T10:52:15.466Z,63.70
2019-05-19T10:54:40.566Z,63.70
2019-05-19T10:57:05.722Z,63.80
2019-05-19T10:59:30.809Z,61.50
2019-05-19T11:01:56.194Z,63.70
2019-05-19T11:04:22.124Z,63.40
2019-05-19T11:06:47.241Z,63.00
2019-05-19T11:09:12.342Z,60.20
2019-05-19T11:11:37.491Z,60.30
2019-05-19T11:14:02.593Z,59.10
2019-05-19T11:16:27.702Z,57.80
2019-05-19T11:18:52.812Z,60.10
2019-05-19T11:21:17.906Z,58.50
2019-05-19T11:23:43.031Z,61.90
2019-05-19T11:26:08.265Z,58.20
2019-05-19T11:28:33.374Z,60.20
2019-05-19T11:30:58.478Z,58.80
2019-05-19T11:33:23.699Z,56.40
2019-05-19T11:35:48.802Z,54.30
2019-05-19T11:38:13.882Z,54.70
2019-05-19T11:40:39.051Z,53.50
2019-05-19T11:43:04.363Z,53.00
2019-05-19T11:45:29.489Z,52.60
2019-05-19T11:47:54.602Z,52.80
2019-05-19T11:50:20.971Z,53.10
2019-05-19T11:52:46.061Z,53.20
2019-05-19T11:55:12.158Z,55.30
2019-05-19T11:57:37.281Z,54.40
2019-05-19T12:00:02.442Z,52.80
2019-05-19T12:02:27.619Z,52.50
2019-05-19T12:04:52.703Z,55.70
2019-05-19T12:07:17.826Z,53.60
2019-05-19T12:09:43.176Z,53.60
2019-05-19T12:12:08.300Z,55.20
2019-05-19T12:14:33.406Z,54.50
2019-05-19T12:16:58.818Z,54.10
2019-05-19T12:19:23.985Z,51.80
2019-05-19T12:21:49.128Z,51.20
2019-05-19T12:24:14.246Z,51.00
2019-05-19T12:26:39.438Z,52.40
2019-05-19T12:29:04.554Z,54.40
2019-05-19T12:31:29.644Z,53.80
2019-05-19T12:33:54.809Z,54.90
2019-05-19T12:36:23.067Z,53.50
2019-05-19T12:38:52.347Z,53.70
2019-05-19T12:41:20.559Z,54.80
2019-05-19T12:43:48.048Z,52.90
2019-05-19T12:46:16.413Z,54.20
2019-05-19T12:48:40.227Z,53.40
2019-05-19T12:51:05.310Z,53.30
2019-05-19T12:53:30.397Z,54.90
2019-05-19T12:55:55.511Z,54.00
2019-05-19T12:58:20.594Z,53.00
2019-05-19T13:00:45.706Z,52.50
2019-05-19T13:03:12.412Z,53.40
2019-05-19T13:05:37.540Z,53.00
2019-05-19T13:08:02.639Z,53.10
2019-05-19T13:10:27.850Z,54.40
2019-05-19T13:12:52.939Z,52.50
2019-05-19T13:15:18.148Z,52.70
2019-05-19T13:17:43.273Z,53.50
2019-05-19T13:20:08.682Z,54.50
2019-05-19T13:22:34.030Z,52.20
2019-05-19T13:24:59.114Z,51.90
2019-05-19T13:27:24.313Z,52.30
2019-05-19T13:29:49.513Z,53.10
2019-05-19T13:32:14.621Z,54.30
2019-05-19T13:34:39.718Z,54.00
2019-05-19T13:37:04.806Z,54.70
2019-05-19T13:39:29.918Z,54.10
2019-05-19T13:41:55.026Z,52.90
2019-05-19T13:44:21.291Z,55.90
2019-05-19T13:46:46.395Z,57.30
2019-05-19T13:49:11.524Z,57.70
2019-05-19T13:51:36.607Z,58.80
2019-05-19T13:54:03.241Z,59.20
2019-05-19T13:56:28.590Z,57.60
2019-05-19T13:58:53.740Z,56.90
2019-05-19T14:01:28.275Z,56.30
2019-05-19T14:03:45.895Z,55.40
2019-05-19T14:06:11.021Z,57.20
2019-05-19T14:08:37.071Z,58.70
2019-05-19T14:11:02.203Z,56.70
2019-05-19T14:13:27.302Z,58.00
2019-05-19T14:15:52.430Z,56.20
2019-05-19T14:18:17.517Z,54.90
2019-05-19T14:20:42.661Z,55.90
2019-05-19T14:23:18.226Z,55.90
2019-05-19T14:25:45.039Z,55.00
2019-05-19T14:28:10.182Z,56.20
2019-05-19T14:30:35.265Z,55.90
2019-05-19T14:33:00.386Z,56.90
2019-05-19T14:35:25.490Z,57.50
2019-05-19T14:37:50.729Z,58.30
2019-05-19T14:40:18.476Z,58.90
2019-05-19T14:42:50.985Z,58.80
2019-05-19T14:45:16.487Z,59.70
2019-05-19T14:47:42.378Z,60.30
2019-05-19T14:50:07.771Z,60.30
2019-05-19T14:52:33.117Z,61.20
2019-05-19T14:54:59.202Z,60.50
2019-05-19T14:57:24.294Z,61.20
2019-05-19T14:59:49.418Z,61.80
2019-05-19T15:02:14.507Z,61.90
2019-05-19T15:04:39.672Z,62.10
2019-05-19T15:07:06.870Z,62.20
2019-05-19T15:09:31.991Z,61.90
2019-05-19T15:11:57.306Z,62.60
2019-05-19T15:14:22.678Z,63.30
2019-05-19T15:16:48.514Z,63.90
2019-05-19T15:19:13.616Z,63.50
2019-05-19T15:21:38.738Z,62.60
2019-05-19T15:24:03.918Z,63.80
2019-05-19T15:26:30.007Z,65.30
2019-05-19T15:28:55.121Z,63.90
2019-05-19T15:31:20.310Z,64.60
2019-05-19T15:33:45.415Z,64.60
2019-05-19T15:36:10.523Z,66.30
2019-05-19T15:38:35.628Z,65.70
2019-05-19T15:41:00.728Z,65.90
2019-05-19T15:43:25.850Z,65.10
2019-05-19T15:45:52.264Z,65.70
2019-05-19T15:48:17.383Z,66.40
2019-05-19T15:50:42.490Z,66.30
2019-05-19T15:53:07.603Z,66.50
2019-05-19T15:55:33.677Z,68.90
2019-05-19T15:57:58.833Z,68.60
2019-05-19T16:00:23.911Z,72.30
2019-05-19T16:02:49.139Z,69.90
2019-05-19T16:05:14.839Z,70.50
2019-05-19T16:07:39.921Z,71.50
2019-05-19T16:10:05.582Z,71.30
2019-05-19T16:12:30.902Z,72.00
2019-05-19T16:14:56.079Z,71.90
2019-05-19T16:17:21.135Z,72.90
2019-05-19T16:19:46.526Z,71.60
2019-05-19T16:22:11.630Z,72.80
2019-05-19T16:24:36.762Z,72.70
2019-05-19T16:27:02.134Z,71.90
2019-05-19T16:29:27.406Z,70.90
2019-05-19T16:31:52.515Z,70.50
2019-05-19T16:34:17.604Z,71.30
2019-05-19T16:36:43.075Z,70.80
2019-05-19T16:39:08.570Z,71.20
2019-05-19T16:41:33.763Z,71.80
2019-05-19T16:43:58.868Z,72.90
2019-05-19T16:46:24.059Z,72.70
2019-05-19T16:48:49.975Z,73.10
2019-05-19T16:51:15.063Z,73.30
2019-05-19T16:53:40.507Z,73.80
2019-05-19T16:56:05.599Z,73.90
2019-05-19T16:58:43.040Z,74.50
2019-05-19T17:00:58.163Z,75.30
2019-05-19T17:03:23.286Z,75.60
2019-05-19T17:05:48.386Z,76.60
2019-05-19T17:08:13.790Z,76.90
2019-05-19T17:10:38.910Z,77.60
2019-05-19T17:13:04.022Z,77.80
2019-05-19T17:15:29.175Z,78.60
2019-05-19T17:17:54.507Z,79.40
2019-05-19T17:20:19.829Z,80.10
2019-05-19T17:22:44.931Z,79.80
2019-05-19T17:25:10.410Z,80.60
2019-05-19T17:27:35.499Z,81.20
2019-05-19T17:30:00.702Z,81.50
2019-05-19T17:32:25.802Z,82.30
2019-05-19T17:34:50.949Z,83.10
2019-05-19T17:37:16.302Z,83.00
2019-05-19T17:39:41.422Z,83.80
2019-05-19T17:42:06.525Z,84.30
2019-05-19T17:44:31.630Z,84.20
2019-05-19T17:46:56.750Z,85.10
2019-05-19T17:49:21.842Z,85.30
2019-05-19T17:51:46.942Z,86.30
2019-05-19T17:54:12.514Z,86.70
2019-05-19T17:56:38.846Z,86.80
2019-05-19T17:59:16.234Z,87.40
2019-05-19T18:01:31.461Z,88.30
2019-05-19T18:03:56.553Z,88.40
2019-05-19T18:06:21.649Z,89.00
2019-05-19T18:08:46.774Z,89.80
2019-05-19T18:11:12.834Z,90.00
2019-05-19T18:13:37.985Z,90.70
2019-05-19T18:16:03.073Z,90.70
2019-05-19T18:18:28.202Z,90.80
2019-05-19T18:20:53.319Z,91.10
2019-05-19T18:23:18.470Z,91.40
2019-05-19T18:25:43.570Z,91.40
2019-05-19T18:28:09.476Z,91.80
2019-05-19T18:30:34.658Z,92.00
2019-05-19T18:32:59.747Z,92.10
2019-05-19T18:35:24.866Z,92.70
2019-05-19T18:37:50.030Z,92.50
2019-05-19T18:40:15.779Z,93.00
2019-05-19T18:42:40.876Z,93.00
2019-05-19T18:45:06.077Z,93.30
2019-05-19T18:47:31.178Z,93.40
2019-05-19T18:49:56.266Z,93.70
2019-05-19T18:52:21.402Z,93.40
2019-05-19T18:54:46.481Z,94.00
2019-05-19T18:57:11.618Z,94.10
2019-05-19T18:59:46.777Z,94.10
2019-05-19T19:02:03.665Z,94.40
2019-05-19T19:04:28.962Z,94.10
2019-05-19T19:06:54.203Z,94.50
2019-05-19T19:09:19.302Z,94.80
2019-05-19T19:11:44.757Z,94.80
2019-05-19T19:14:10.831Z,95.00
2019-05-19T19:16:35.931Z,94.80
2019-05-19T19:19:01.146Z,95.30
2019-05-19T19:21:26.245Z,95.50
2019-05-19T19:23:51.340Z,95.70
2019-05-19T19:26:16.573Z,95.60
2019-05-19T19:28:41.670Z,95.50
2019-05-19T19:31:06.814Z,95.70
2019-05-19T19:33:31.970Z,95.60
2019-05-19T19:35:57.137Z,95.70
2019-05-19T19:38:22.234Z,95.60
2019-05-19T19:40:47.358Z,95.70
2019-05-19T19:43:12.452Z,95.50
2019-05-19T19:45:37.579Z,95.60
2019-05-19T19:48:02.722Z,95.70
2019-05-19T19:50:27.846Z,95.70
2019-05-19T19:52:52.944Z,95.70
2019-05-19T19:55:18.165Z,95.40
2019-05-19T19:57:44.595Z,96.00
2019-05-19T20:00:17.754Z,95.70
2019-05-19T20:02:36.633Z,96.00
2019-05-19T20:05:01.741Z,96.00
2019-05-19T20:07:26.886Z,96.10
2019-05-19T20:09:52.269Z,96.40
2019-05-19T20:12:17.394Z,96.20
2019-05-19T20:14:42.483Z,96.10
2019-05-19T20:17:07.601Z,96.30
2019-05-19T20:19:32.706Z,96.60
2019-05-19T20:21:57.855Z,96.80
2019-05-19T20:24:22.950Z,96.70
2019-05-19T20:26:48.034Z,97.00
2019-05-19T20:29:13.151Z,97.20
2019-05-19T20:31:38.299Z,97.20
2019-05-19T20:34:03.440Z,97.30
2019-05-19T20:36:28.545Z,97.10
2019-05-19T20:38:53.914Z,97.10
2019-05-19T20:41:19.014Z,97.80
2019-05-19T20:43:44.226Z,97.50
2019-05-19T20:46:09.322Z,98.00
2019-05-19T20:48:34.422Z,97.60
2019-05-19T20:50:59.565Z,97.40
2019-05-19T20:53:24.657Z,97.70
2019-05-19T20:55:49.784Z,97.90
2019-05-19T20:58:15.270Z,98.00
2019-05-19T21:00:49.838Z,98.10
2019-05-19T21:03:07.720Z,97.70
2019-05-19T21:05:32.819Z,98.20
2019-05-19T21:07:57.964Z,98.20
2019-05-19T21:10:23.315Z,98.00
2019-05-19T21:12:48.446Z,98.10
2019-05-19T21:15:13.816Z,98.00
2019-05-19T21:17:39.442Z,98.10
2019-05-19T21:20:04.695Z,98.10
2019-05-19T21:22:31.069Z,97.90
2019-05-19T21:24:56.210Z,98.20
2019-05-19T21:27:21.307Z,98.10
2019-05-19T21:29:46.441Z,98.20
2019-05-19T21:32:11.634Z,97.70
2019-05-19T21:34:36.726Z,98.20
2019-05-19T21:37:01.866Z,98.30
2019-05-19T21:39:26.967Z,98.20
2019-05-19T21:41:52.102Z,98.20
2019-05-19T21:44:17.191Z,98.60
2019-05-19T21:46:42.300Z,98.60
2019-05-19T21:49:07.513Z,98.70
2019-05-19T21:51:32.616Z,98.20
2019-05-19T21:53:57.782Z,97.80
2019-05-19T21:56:22.878Z,97.80
2019-05-19T21:58:47.983Z,98.40
2019-05-19T22:01:22.804Z,98.00
2019-05-19T22:03:40.196Z,98.60
2019-05-19T22:06:05.328Z,98.30
2019-05-19T22:08:30.542Z,98.10
2019-05-19T22:10:55.650Z,98.00
2019-05-19T22:13:21.058Z,98.00
2019-05-19T22:15:46.189Z,97.90
2019-05-19T22:18:11.380Z,98.00
2019-05-19T22:20:36.732Z,98.00
2019-05-19T22:23:01.827Z,98.10
2019-05-19T22:25:27.050Z,98.00
2019-05-19T22:27:52.145Z,98.60
2019-05-19T22:30:17.444Z,98.80
2019-05-19T22:32:42.648Z,98.50
2019-05-19T22:35:09.249Z,98.60
2019-05-19T22:37:34.383Z,98.50
2019-05-19T22:39:59.488Z,98.80
2019-05-19T22:42:24.622Z,98.80
2019-05-19T22:44:49.799Z,99.30
2019-05-19T22:47:15.086Z,99.10
2019-05-19T22:49:40.205Z,99.10
2019-05-19T22:52:05.318Z,99.30
2019-05-19T22:54:30.448Z,99.30
2019-05-19T22:56:55.803Z,99.90
2019-05-19T22:59:20.926Z,99.90
2019-05-19T23:01:51.969Z,99.90
2019-05-19T23:04:12.778Z,99.90
2019-05-19T23:06:37.882Z,99.80
2019-05-19T23:09:04.558Z,99.70
2019-05-19T23:11:29.694Z,99.90
2019-05-19T23:13:55.113Z,99.90
2019-05-19T23:16:20.330Z,99.90
2019-05-19T23:18:45.422Z,99.90
2019-05-19T23:21:10.553Z,99.90
2019-05-19T23:23:35.659Z,99.90
2019-05-19T23:26:00.779Z,99.90
2019-05-19T23:28:26.853Z,99.90
2019-05-19T23:30:52.006Z,99.90
2019-05-19T23:33:17.237Z,99.90
2019-05-19T23:35:42.342Z,99.90
2019-05-19T23:38:07.471Z,99.90
2019-05-19T23:40:32.634Z,99.90
2019-05-19T23:42:57.762Z,99.90
2019-05-19T23:45:22.867Z,99.90
2019-05-19T23:47:48.838Z,99.90
2019-05-19T23:50:14.247Z,99.90
2019-05-19T23:52:39.366Z,99.90
2019-05-19T23:55:04.811Z,99.90
2019-05-19T23:57:29.907Z,99.90
2019-05-19T23:59:55.038Z,99.90
